sensor_id;sensor_type;location;lat;lon;timestamp;P1;durP1;ratioP1;P2;durP2;ratioP2
6902;SDS011;20232;49.408;8.702;2023-11-19T05:00:26;2.73;;;2.53;;
6902;SDS011;20232;49.408;8.702;2023-11-19T05:02:51;2.77;;;2.60;;
6902;SDS011;20232;49.408;8.702;2023-11-19T05:05:16;2.97;;;2.77;;
6902;SDS011;20232;49.408;8.702;2023-11-19T05:07:42;2.90;;;2.70;;
6902;SDS011;20232;49.408;8.702;2023-11-19T05:10:08;2.90;;;2.70;;
6902;SDS011;20232;49.408;8.702;2023-11-19T05:12:34;3.27;;;2.97;;
6902;SDS011;20232;49.408;8.702;2023-11-19T05:14:59;3.00;;;2.80;;
6902;SDS011;20232;49.408;8.702;2023-11-19T05:17:25;3.40;;;2.80;;
6902;SDS011;20232;49.408;8.702;2023-11-19T05:19:50;3.00;;;2.70;;
6902;SDS011;20232;49.408;8.702;2023-11-19T05:22:16;3.10;;;2.90;;
6902;SDS011;20232;49.408;8.702;2023-11-19T05:24:42;2.83;;;2.63;;
6902;SDS011;20232;49.408;8.702;2023-11-19T05:27:07;3.43;;;2.57;;
6902;SDS011;20232;49.408;8.702;2023-11-19T05:29:33;3.27;;;2.97;;
6902;SDS011;20232;49.408;8.702;2023-11-19T05:31:58;3.30;;;3.10;;
6902;SDS011;20232;49.408;8.702;2023-11-19T05:34:24;3.20;;;2.90;;
6902;SDS011;20232;49.408;8.702;2023-11-19T05:36:50;3.20;;;2.90;;
6902;SDS011;20232;49.408;8.702;2023-11-19T05:39:15;3.30;;;3.00;;
6902;SDS011;20232;49.408;8.702;2023-11-19T05:41:41;4.87;;;2.97;;
6902;SDS011;20232;49.408;8.702;2023-11-19T05:44:07;5.30;;;2.83;;
6902;SDS011;20232;49.408;8.702;2023-11-19T05:46:32;5.00;;;2.90;;
6902;SDS011;20232;49.408;8.702;2023-11-19T05:48:58;2.93;;;2.73;;
6902;SDS011;20232;49.408;8.702;2023-11-19T05:51:23;3.13;;;2.83;;
6902;SDS011;20232;49.408;8.702;2023-11-19T05:53:49;3.13;;;2.87;;
6902;SDS011;20232;49.408;8.702;2023-11-19T05:56:15;2.87;;;2.67;;
6902;SDS011;20232;49.408;8.702;2023-11-19T05:58:46;2.67;;;2.47;;
6902;SDS011;20232;49.408;8.702;2023-11-19T06:01:13;4.40;;;2.93;;
6902;SDS011;20232;49.408;8.702;2023-11-19T06:03:38;3.70;;;2.77;;
6902;SDS011;20232;49.408;8.702;2023-11-19T06:06:04;2.93;;;2.70;;
6902;SDS011;20232;49.408;8.702;2023-11-19T06:08:30;3.17;;;2.60;;
6902;SDS011;20232;49.408;8.702;2023-11-19T06:10:55;2.80;;;2.60;;
6902;SDS011;20232;49.408;8.702;2023-11-19T06:13:21;2.60;;;2.40;;
6902;SDS011;20232;49.408;8.702;2023-11-19T06:15:46;3.27;;;2.67;;
6902;SDS011;20232;49.408;8.702;2023-11-19T06:18:12;3.37;;;2.50;;
6902;SDS011;20232;49.408;8.702;2023-11-19T06:20:37;2.70;;;2.20;;
6902;SDS011;20232;49.408;8.702;2023-11-19T06:23:03;4.23;;;2.40;;
6902;SDS011;20232;49.408;8.702;2023-11-19T06:25:28;3.50;;;2.37;;
6902;SDS011;20232;49.408;8.702;2023-11-19T06:27:54;2.20;;;2.00;;
6902;SDS011;20232;49.408;8.702;2023-11-19T06:30:19;2.50;;;2.30;;
6902;SDS011;20232;49.408;8.702;2023-11-19T06:32:45;2.07;;;1.87;;
6902;SDS011;20232;49.408;8.702;2023-11-19T06:35:11;2.60;;;2.23;;
6902;SDS011;20232;49.408;8.702;2023-11-19T06:37:39;1.60;;;1.50;;
6902;SDS011;20232;49.408;8.702;2023-11-19T06:40:05;4.00;;;2.20;;
6902;SDS011;20232;49.408;8.702;2023-11-19T06:42:30;1.60;;;1.50;;
6902;SDS011;20232;49.408;8.702;2023-11-19T06:44:56;1.70;;;1.60;;
6902;SDS011;20232;49.408;8.702;2023-11-19T06:47:24;1.93;;;1.80;;
6902;SDS011;20232;49.408;8.702;2023-11-19T06:49:51;1.70;;;1.60;;
6902;SDS011;20232;49.408;8.702;2023-11-19T06:52:17;2.90;;;1.50;;
6902;SDS011;20232;49.408;8.702;2023-11-19T06:54:42;2.10;;;1.40;;
6902;SDS011;20232;49.408;8.702;2023-11-19T06:57:07;1.40;;;1.40;;
6902;SDS011;20232;49.408;8.702;2023-11-19T06:59:34;2.20;;;1.57;;
6902;SDS011;20232;49.408;8.702;2023-11-19T07:01:59;1.70;;;1.60;;
6902;SDS011;20232;49.408;8.702;2023-11-19T07:04:25;2.07;;;1.50;;
6902;SDS011;20232;49.408;8.702;2023-11-19T07:06:50;1.60;;;1.50;;
6902;SDS011;20232;49.408;8.702;2023-11-19T07:09:17;1.40;;;1.40;;
6902;SDS011;20232;49.408;8.702;2023-11-19T07:11:43;1.80;;;1.30;;
6902;SDS011;20232;49.408;8.702;2023-11-19T07:14:10;1.87;;;1.63;;
6902;SDS011;20232;49.408;8.702;2023-11-19T07:16:36;1.30;;;1.30;;
6902;SDS011;20232;49.408;8.702;2023-11-19T07:19:05;1.60;;;1.20;;
6902;SDS011;20232;49.408;8.702;2023-11-19T07:21:31;2.30;;;1.33;;
6902;SDS011;20232;49.408;8.702;2023-11-19T07:23:58;1.70;;;1.50;;
6902;SDS011;20232;49.408;8.702;2023-11-19T07:26:24;1.67;;;1.50;;
6902;SDS011;20232;49.408;8.702;2023-11-19T07:28:50;1.77;;;1.60;;
6902;SDS011;20232;49.408;8.702;2023-11-19T07:31:16;1.70;;;1.43;;
6902;SDS011;20232;49.408;8.702;2023-11-19T07:33:41;1.70;;;1.60;;
6902;SDS011;20232;49.408;8.702;2023-11-19T07:36:08;1.40;;;1.30;;
6902;SDS011;20232;49.408;8.702;2023-11-19T07:38:34;1.60;;;1.50;;
6902;SDS011;20232;49.408;8.702;2023-11-19T07:40:59;1.53;;;1.47;;
6902;SDS011;20232;49.408;8.702;2023-11-19T07:43:25;1.13;;;1.13;;
6902;SDS011;20232;49.408;8.702;2023-11-19T07:45:51;3.83;;;1.60;;
6902;SDS011;20232;49.408;8.702;2023-11-19T07:48:16;1.63;;;1.53;;
6902;SDS011;20232;49.408;8.702;2023-11-19T07:50:43;1.50;;;1.20;;
6902;SDS011;20232;49.408;8.702;2023-11-19T07:53:08;1.30;;;1.20;;
6902;SDS011;20232;49.408;8.702;2023-11-19T07:55:34;1.60;;;1.50;;
6902;SDS011;20232;49.408;8.702;2023-11-19T07:57:59;2.27;;;1.60;;
6902;SDS011;20232;49.408;8.702;2023-11-19T08:00:25;1.53;;;1.43;;
6902;SDS011;20232;49.408;8.702;2023-11-19T08:02:50;2.00;;;1.43;;
6902;SDS011;20232;49.408;8.702;2023-11-19T08:05:15;1.70;;;1.33;;
6902;SDS011;20232;49.408;8.702;2023-11-19T08:07:41;1.50;;;1.40;;
6902;SDS011;20232;49.408;8.702;2023-11-19T08:10:06;1.70;;;1.40;;
6902;SDS011;20232;49.408;8.702;2023-11-19T08:12:35;1.30;;;1.30;;
6902;SDS011;20232;49.408;8.702;2023-11-19T08:15:01;1.57;;;1.47;;
6902;SDS011;20232;49.408;8.702;2023-11-19T08:17:33;1.30;;;1.30;;
6902;SDS011;20232;49.408;8.702;2023-11-19T08:19:58;1.60;;;1.50;;
6902;SDS011;20232;49.408;8.702;2023-11-19T08:22:25;1.77;;;1.67;;
6902;SDS011;20232;49.408;8.702;2023-11-19T08:24:51;1.47;;;1.40;;
6902;SDS011;20232;49.408;8.702;2023-11-19T08:27:16;1.57;;;1.47;;
6902;SDS011;20232;49.408;8.702;2023-11-19T08:29:41;1.70;;;1.60;;
6902;SDS011;20232;49.408;8.702;2023-11-19T08:32:07;1.50;;;1.40;;
6902;SDS011;20232;49.408;8.702;2023-11-19T08:34:32;1.77;;;1.67;;
6902;SDS011;20232;49.408;8.702;2023-11-19T08:36:58;2.27;;;1.50;;
6902;SDS011;20232;49.408;8.702;2023-11-19T08:39:24;1.70;;;1.60;;
6902;SDS011;20232;49.408;8.702;2023-11-19T08:41:49;2.53;;;1.50;;
6902;SDS011;20232;49.408;8.702;2023-11-19T08:44:16;1.93;;;1.67;;
6902;SDS011;20232;49.408;8.702;2023-11-19T08:46:50;1.77;;;1.60;;
6902;SDS011;20232;49.408;8.702;2023-11-19T08:49:16;1.73;;;1.63;;
6902;SDS011;20232;49.408;8.702;2023-11-19T08:51:42;1.63;;;1.53;;
6902;SDS011;20232;49.408;8.702;2023-11-19T08:54:08;2.97;;;1.70;;
6902;SDS011;20232;49.408;8.702;2023-11-19T08:56:33;2.47;;;1.70;;
6902;SDS011;20232;49.408;8.702;2023-11-19T08:59:00;1.87;;;1.57;;
6902;SDS011;20232;49.408;8.702;2023-11-19T09:01:26;3.23;;;1.63;;
6902;SDS011;20232;49.408;8.702;2023-11-19T09:03:51;1.70;;;1.60;;
6902;SDS011;20232;49.408;8.702;2023-11-19T09:06:17;2.43;;;1.70;;
6902;SDS011;20232;49.408;8.702;2023-11-19T09:08:42;2.93;;;1.70;;
6902;SDS011;20232;49.408;8.702;2023-11-19T09:11:08;1.60;;;1.50;;
6902;SDS011;20232;49.408;8.702;2023-11-19T09:13:34;3.63;;;1.90;;
6902;SDS011;20232;49.408;8.702;2023-11-19T09:16:00;1.60;;;1.47;;
6902;SDS011;20232;49.408;8.702;2023-11-19T09:18:28;1.67;;;1.53;;
6902;SDS011;20232;49.408;8.702;2023-11-19T09:20:57;1.80;;;1.70;;
6902;SDS011;20232;49.408;8.702;2023-11-19T09:23:23;2.13;;;1.93;;
6902;SDS011;20232;49.408;8.702;2023-11-19T09:25:50;1.50;;;1.40;;
6902;SDS011;20232;49.408;8.702;2023-11-19T09:28:16;2.47;;;1.67;;
6902;SDS011;20232;49.408;8.702;2023-11-19T09:30:41;1.93;;;1.50;;
6902;SDS011;20232;49.408;8.702;2023-11-19T09:33:06;1.70;;;1.53;;
6902;SDS011;20232;49.408;8.702;2023-11-19T09:35:32;1.40;;;1.40;;
6902;SDS011;20232;49.408;8.702;2023-11-19T09:37:57;1.60;;;1.50;;
6902;SDS011;20232;49.408;8.702;2023-11-19T09:40:24;1.53;;;1.43;;
6902;SDS011;20232;49.408;8.702;2023-11-19T09:42:49;2.90;;;1.50;;
6902;SDS011;20232;49.408;8.702;2023-11-19T09:45:16;3.37;;;1.40;;
6902;SDS011;20232;49.408;8.702;2023-11-19T09:47:45;2.40;;;1.47;;
6902;SDS011;20232;49.408;8.702;2023-11-19T09:50:18;1.87;;;1.50;;
6902;SDS011;20232;49.408;8.702;2023-11-19T09:52:45;2.33;;;1.43;;
6902;SDS011;20232;49.408;8.702;2023-11-19T09:55:11;2.67;;;1.50;;
6902;SDS011;20232;49.408;8.702;2023-11-19T09:57:37;1.47;;;1.37;;
6902;SDS011;20232;49.408;8.702;2023-11-19T10:00:03;1.30;;;1.30;;
6902;SDS011;20232;49.408;8.702;2023-11-19T10:02:31;2.03;;;1.40;;
6902;SDS011;20232;49.408;8.702;2023-11-19T10:04:59;1.30;;;1.30;;
6902;SDS011;20232;49.408;8.702;2023-11-19T10:07:24;2.20;;;1.40;;
6902;SDS011;20232;49.408;8.702;2023-11-19T10:09:50;2.43;;;1.30;;
6902;SDS011;20232;49.408;8.702;2023-11-19T10:12:15;2.00;;;1.67;;
6902;SDS011;20232;49.408;8.702;2023-11-19T10:14:41;1.50;;;1.40;;
6902;SDS011;20232;49.408;8.702;2023-11-19T10:17:08;2.13;;;1.47;;
6902;SDS011;20232;49.408;8.702;2023-11-19T10:19:34;1.77;;;1.60;;
6902;SDS011;20232;49.408;8.702;2023-11-19T10:22:09;1.70;;;1.60;;
6902;SDS011;20232;49.408;8.702;2023-11-19T10:24:35;2.60;;;1.37;;
6902;SDS011;20232;49.408;8.702;2023-11-19T10:27:04;1.40;;;1.30;;
6902;SDS011;20232;49.408;8.702;2023-11-19T10:29:35;1.80;;;1.63;;
6902;SDS011;20232;49.408;8.702;2023-11-19T10:32:02;2.57;;;1.47;;
6902;SDS011;20232;49.408;8.702;2023-11-19T10:34:28;1.67;;;1.57;;
6902;SDS011;20232;49.408;8.702;2023-11-19T10:36:54;2.10;;;1.20;;
6902;SDS011;20232;49.408;8.702;2023-11-19T10:39:20;1.53;;;1.47;;
6902;SDS011;20232;49.408;8.702;2023-11-19T10:41:46;2.40;;;1.40;;
6902;SDS011;20232;49.408;8.702;2023-11-19T10:44:11;1.43;;;1.30;;
6902;SDS011;20232;49.408;8.702;2023-11-19T10:46:40;1.10;;;1.10;;
6902;SDS011;20232;49.408;8.702;2023-11-19T10:49:07;2.20;;;1.33;;
6902;SDS011;20232;49.408;8.702;2023-11-19T10:51:32;3.87;;;1.50;;
6902;SDS011;20232;49.408;8.702;2023-11-19T10:54:05;1.47;;;1.37;;
6902;SDS011;20232;49.408;8.702;2023-11-19T10:56:31;1.90;;;1.40;;
6902;SDS011;20232;49.408;8.702;2023-11-19T10:58:57;2.23;;;1.40;;
6902;SDS011;20232;49.408;8.702;2023-11-19T11:01:25;3.07;;;1.20;;
6902;SDS011;20232;49.408;8.702;2023-11-19T11:03:53;2.73;;;1.40;;
6902;SDS011;20232;49.408;8.702;2023-11-19T11:06:21;4.30;;;1.80;;
6902;SDS011;20232;49.408;8.702;2023-11-19T11:08:47;1.87;;;1.30;;
6902;SDS011;20232;49.408;8.702;2023-11-19T11:11:15;1.40;;;1.30;;
6902;SDS011;20232;49.408;8.702;2023-11-19T11:13:43;2.43;;;1.30;;
6902;SDS011;20232;49.408;8.702;2023-11-19T11:16:09;2.80;;;1.60;;
6902;SDS011;20232;49.408;8.702;2023-11-19T11:18:36;1.73;;;1.63;;
6902;SDS011;20232;49.408;8.702;2023-11-19T11:21:05;1.90;;;1.50;;
6902;SDS011;20232;49.408;8.702;2023-11-19T11:29:01;1.60;;;1.50;;
6902;SDS011;20232;49.408;8.702;2023-11-19T11:31:56;1.87;;;1.60;;
6902;SDS011;20232;49.408;8.702;2023-11-19T11:34:42;1.40;;;1.30;;
6902;SDS011;20232;49.408;8.702;2023-11-19T11:37:17;3.20;;;1.70;;
6902;SDS011;20232;49.408;8.702;2023-11-19T11:39:45;2.00;;;1.43;;
6902;SDS011;20232;49.408;8.702;2023-11-19T11:50:12;4.07;;;1.90;;
6902;SDS011;20232;49.408;8.702;2023-11-19T11:55:26;2.07;;;1.37;;
6902;SDS011;20232;49.408;8.702;2023-11-19T11:57:52;2.60;;;1.43;;
6902;SDS011;20232;49.408;8.702;2023-11-19T12:00:28;3.57;;;1.53;;
6902;SDS011;20232;49.408;8.702;2023-11-19T12:02:59;2.40;;;1.43;;
6902;SDS011;20232;49.408;8.702;2023-11-19T12:05:25;3.00;;;1.40;;
6902;SDS011;20232;49.408;8.702;2023-11-19T12:07:54;1.73;;;1.40;;
6902;SDS011;20232;49.408;8.702;2023-11-19T12:10:20;2.97;;;1.20;;
6902;SDS011;20232;49.408;8.702;2023-11-19T12:12:47;3.13;;;1.30;;
6902;SDS011;20232;49.408;8.702;2023-11-19T12:15:12;1.43;;;1.20;;
6902;SDS011;20232;49.408;8.702;2023-11-19T12:17:43;2.73;;;1.47;;
6902;SDS011;20232;49.408;8.702;2023-11-19T12:20:14;1.53;;;1.30;;
6902;SDS011;20232;49.408;8.702;2023-11-19T12:22:42;2.87;;;1.50;;
6902;SDS011;20232;49.408;8.702;2023-11-19T12:25:15;2.07;;;1.50;;
6902;SDS011;20232;49.408;8.702;2023-11-19T12:27:42;2.57;;;1.40;;
6902;SDS011;20232;49.408;8.702;2023-11-19T12:30:09;1.67;;;1.27;;
6902;SDS011;20232;49.408;8.702;2023-11-19T12:32:41;2.47;;;1.50;;
6902;SDS011;20232;49.408;8.702;2023-11-19T12:35:08;1.67;;;1.30;;
6902;SDS011;20232;49.408;8.702;2023-11-19T12:37:43;2.87;;;1.40;;
6902;SDS011;20232;49.408;8.702;2023-11-19T12:40:22;2.00;;;1.30;;
6902;SDS011;20232;49.408;8.702;2023-11-19T12:42:49;2.57;;;1.40;;
6902;SDS011;20232;49.408;8.702;2023-11-19T12:45:15;1.60;;;1.20;;
6902;SDS011;20232;49.408;8.702;2023-11-19T12:47:44;1.40;;;1.30;;
6902;SDS011;20232;49.408;8.702;2023-11-19T12:50:12;4.80;;;1.40;;
6902;SDS011;20232;49.408;8.702;2023-11-19T12:52:38;1.30;;;1.20;;
6902;SDS011;20232;49.408;8.702;2023-11-19T12:55:04;1.77;;;1.20;;
6902;SDS011;20232;49.408;8.702;2023-11-19T12:57:41;1.47;;;1.27;;
6902;SDS011;20232;49.408;8.702;2023-11-19T13:00:07;1.40;;;1.30;;
6902;SDS011;20232;49.408;8.702;2023-11-19T13:02:52;1.50;;;1.07;;
6902;SDS011;20232;49.408;8.702;2023-11-19T13:07:51;3.33;;;1.40;;
6902;SDS011;20232;49.408;8.702;2023-11-19T13:10:25;3.03;;;1.37;;
6902;SDS011;20232;49.408;8.702;2023-11-19T13:15:26;1.40;;;1.30;;
6902;SDS011;20232;49.408;8.702;2023-11-19T13:17:51;2.00;;;1.40;;
6902;SDS011;20232;49.408;8.702;2023-11-19T13:20:18;2.17;;;1.20;;
6902;SDS011;20232;49.408;8.702;2023-11-19T13:25:41;1.87;;;1.30;;
6902;SDS011;20232;49.408;8.702;2023-11-19T13:28:06;1.93;;;1.20;;
6902;SDS011;20232;49.408;8.702;2023-11-19T13:30:32;1.60;;;1.30;;
6902;SDS011;20232;49.408;8.702;2023-11-19T13:32:57;3.13;;;1.37;;
6902;SDS011;20232;49.408;8.702;2023-11-19T13:35:22;3.33;;;1.37;;
6902;SDS011;20232;49.408;8.702;2023-11-19T13:37:48;3.63;;;1.40;;
6902;SDS011;20232;49.408;8.702;2023-11-19T13:40:13;2.30;;;1.27;;
6902;SDS011;20232;49.408;8.702;2023-11-19T13:42:42;3.17;;;1.30;;
6902;SDS011;20232;49.408;8.702;2023-11-19T13:45:08;2.77;;;1.30;;
6902;SDS011;20232;49.408;8.702;2023-11-19T13:47:37;3.43;;;1.43;;
6902;SDS011;20232;49.408;8.702;2023-11-19T13:50:06;2.97;;;1.60;;
6902;SDS011;20232;49.408;8.702;2023-11-19T13:52:36;1.33;;;1.23;;
6902;SDS011;20232;49.408;8.702;2023-11-19T13:55:04;2.97;;;1.20;;
6902;SDS011;20232;49.408;8.702;2023-11-19T13:57:31;2.20;;;1.30;;
6902;SDS011;20232;49.408;8.702;2023-11-19T13:59:57;1.90;;;1.33;;
6902;SDS011;20232;49.408;8.702;2023-11-19T14:02:22;4.73;;;1.50;;
6902;SDS011;20232;49.408;8.702;2023-11-19T14:04:47;2.10;;;1.23;;
6902;SDS011;20232;49.408;8.702;2023-11-19T14:07:13;2.77;;;1.60;;
6902;SDS011;20232;49.408;8.702;2023-11-19T14:09:41;5.10;;;1.70;;
6902;SDS011;20232;49.408;8.702;2023-11-19T14:12:07;1.43;;;1.10;;
6902;SDS011;20232;49.408;8.702;2023-11-19T14:14:34;1.37;;;1.17;;
6902;SDS011;20232;49.408;8.702;2023-11-19T14:17:01;3.23;;;1.60;;
6902;SDS011;20232;49.408;8.702;2023-11-19T14:19:28;1.73;;;1.30;;
6902;SDS011;20232;49.408;8.702;2023-11-19T14:21:53;2.37;;;1.40;;
6902;SDS011;20232;49.408;8.702;2023-11-19T14:24:19;2.37;;;1.27;;
6902;SDS011;20232;49.408;8.702;2023-11-19T14:26:45;2.33;;;1.30;;
6902;SDS011;20232;49.408;8.702;2023-11-19T14:29:12;2.90;;;1.20;;
6902;SDS011;20232;49.408;8.702;2023-11-19T14:31:37;1.87;;;1.20;;
6902;SDS011;20232;49.408;8.702;2023-11-19T14:34:03;1.43;;;1.27;;
6902;SDS011;20232;49.408;8.702;2023-11-19T14:36:28;3.17;;;1.40;;
6902;SDS011;20232;49.408;8.702;2023-11-19T14:38:54;1.67;;;1.33;;
6902;SDS011;20232;49.408;8.702;2023-11-19T14:41:19;3.33;;;1.80;;
6902;SDS011;20232;49.408;8.702;2023-11-19T14:43:45;3.50;;;1.40;;
6902;SDS011;20232;49.408;8.702;2023-11-19T14:46:10;5.80;;;1.50;;
6902;SDS011;20232;49.408;8.702;2023-11-19T14:48:35;4.83;;;1.80;;
6902;SDS011;20232;49.408;8.702;2023-11-19T14:51:01;2.23;;;1.53;;
6902;SDS011;20232;49.408;8.702;2023-11-19T14:53:28;4.87;;;1.50;;
6902;SDS011;20232;49.408;8.702;2023-11-19T14:55:53;5.60;;;1.50;;
6902;SDS011;20232;49.408;8.702;2023-11-19T14:58:19;3.23;;;1.47;;
6902;SDS011;20232;49.408;8.702;2023-11-19T15:00:45;2.03;;;1.43;;
6902;SDS011;20232;49.408;8.702;2023-11-19T15:03:10;5.13;;;1.63;;
6902;SDS011;20232;49.408;8.702;2023-11-19T15:05:37;2.13;;;1.47;;
6902;SDS011;20232;49.408;8.702;2023-11-19T15:08:02;2.33;;;1.43;;
6902;SDS011;20232;49.408;8.702;2023-11-19T15:10:28;2.77;;;1.50;;
6902;SDS011;20232;49.408;8.702;2023-11-19T15:12:53;2.40;;;1.30;;
6902;SDS011;20232;49.408;8.702;2023-11-19T15:15:19;2.43;;;1.30;;
6902;SDS011;20232;49.408;8.702;2023-11-19T15:17:45;3.77;;;1.37;;
6902;SDS011;20232;49.408;8.702;2023-11-19T15:20:10;3.40;;;1.70;;
6902;SDS011;20232;49.408;8.702;2023-11-19T15:22:38;4.87;;;1.70;;
6902;SDS011;20232;49.408;8.702;2023-11-19T15:25:04;3.37;;;1.47;;
6902;SDS011;20232;49.408;8.702;2023-11-19T15:27:33;4.03;;;1.30;;
6902;SDS011;20232;49.408;8.702;2023-11-19T15:29:58;6.93;;;1.83;;
6902;SDS011;20232;49.408;8.702;2023-11-19T15:32:24;2.70;;;1.40;;
6902;SDS011;20232;49.408;8.702;2023-11-19T15:34:49;4.20;;;1.50;;
6902;SDS011;20232;49.408;8.702;2023-11-19T15:37:14;2.90;;;1.33;;
6902;SDS011;20232;49.408;8.702;2023-11-19T15:39:40;3.37;;;1.57;;
6902;SDS011;20232;49.408;8.702;2023-11-19T15:42:06;2.70;;;1.80;;
6902;SDS011;20232;49.408;8.702;2023-11-19T15:44:31;2.27;;;1.50;;
6902;SDS011;20232;49.408;8.702;2023-11-19T15:46:56;2.07;;;1.30;;
6902;SDS011;20232;49.408;8.702;2023-11-19T15:49:22;4.30;;;2.00;;
6902;SDS011;20232;49.408;8.702;2023-11-19T15:51:47;3.07;;;1.57;;
6902;SDS011;20232;49.408;8.702;2023-11-19T15:54:13;2.47;;;1.30;;
6902;SDS011;20232;49.408;8.702;2023-11-19T15:56:38;4.17;;;1.70;;
6902;SDS011;20232;49.408;8.702;2023-11-19T15:59:04;4.33;;;1.77;;
6902;SDS011;20232;49.408;8.702;2023-11-19T16:01:29;7.30;;;1.87;;
6902;SDS011;20232;49.408;8.702;2023-11-19T16:03:55;4.07;;;1.40;;
6902;SDS011;20232;49.408;8.702;2023-11-19T16:06:21;3.13;;;1.50;;
6902;SDS011;20232;49.408;8.702;2023-11-19T16:08:47;7.23;;;1.70;;
6902;SDS011;20232;49.408;8.702;2023-11-19T16:11:13;2.87;;;1.40;;
6902;SDS011;20232;49.408;8.702;2023-11-19T16:13:38;5.33;;;1.83;;
6902;SDS011;20232;49.408;8.702;2023-11-19T16:16:04;3.77;;;1.80;;
6902;SDS011;20232;49.408;8.702;2023-11-19T16:18:30;5.87;;;1.70;;
6902;SDS011;20232;49.408;8.702;2023-11-19T16:20:55;3.90;;;1.90;;
6902;SDS011;20232;49.408;8.702;2023-11-19T16:23:20;2.33;;;1.60;;
6902;SDS011;20232;49.408;8.702;2023-11-19T16:25:46;2.93;;;1.43;;
6902;SDS011;20232;49.408;8.702;2023-11-19T16:28:11;6.63;;;2.00;;
6902;SDS011;20232;49.408;8.702;2023-11-19T16:30:37;5.37;;;1.50;;
6902;SDS011;20232;49.408;8.702;2023-11-19T16:33:03;3.57;;;1.50;;
6902;SDS011;20232;49.408;8.702;2023-11-19T16:35:28;3.47;;;1.80;;
6902;SDS011;20232;49.408;8.702;2023-11-19T16:37:53;2.80;;;1.90;;
6902;SDS011;20232;49.408;8.702;2023-11-19T16:40:19;4.87;;;1.70;;
6902;SDS011;20232;49.408;8.702;2023-11-19T16:42:44;2.57;;;1.87;;
6902;SDS011;20232;49.408;8.702;2023-11-19T16:45:13;4.63;;;1.87;;
6902;SDS011;20232;49.408;8.702;2023-11-19T16:47:39;2.90;;;1.50;;
6902;SDS011;20232;49.408;8.702;2023-11-19T16:50:05;6.33;;;2.23;;
6902;SDS011;20232;49.408;8.702;2023-11-19T16:52:30;4.10;;;2.03;;
6902;SDS011;20232;49.408;8.702;2023-11-19T16:55:00;4.73;;;1.93;;
6902;SDS011;20232;49.408;8.702;2023-11-19T16:57:29;4.63;;;1.70;;
6902;SDS011;20232;49.408;8.702;2023-11-19T16:59:56;3.47;;;1.80;;
6902;SDS011;20232;49.408;8.702;2023-11-19T17:02:23;3.87;;;1.80;;
6902;SDS011;20232;49.408;8.702;2023-11-19T17:04:51;2.77;;;1.70;;
6902;SDS011;20232;49.408;8.702;2023-11-19T17:07:16;3.87;;;1.70;;
6902;SDS011;20232;49.408;8.702;2023-11-19T17:09:42;3.37;;;1.93;;
6902;SDS011;20232;49.408;8.702;2023-11-19T17:12:08;2.57;;;1.87;;
6902;SDS011;20232;49.408;8.702;2023-11-19T17:14:33;3.47;;;2.00;;
6902;SDS011;20232;49.408;8.702;2023-11-19T17:16:59;3.80;;;2.23;;
6902;SDS011;20232;49.408;8.702;2023-11-19T17:19:28;5.30;;;2.30;;
6902;SDS011;20232;49.408;8.702;2023-11-19T17:21:53;7.13;;;2.50;;
6902;SDS011;20232;49.408;8.702;2023-11-19T17:24:19;3.10;;;2.10;;
6902;SDS011;20232;49.408;8.702;2023-11-19T17:26:44;3.70;;;3.10;;
6902;SDS011;20232;49.408;8.702;2023-11-19T17:29:10;4.37;;;2.30;;
6902;SDS011;20232;49.408;8.702;2023-11-19T17:31:36;4.77;;;2.10;;
6902;SDS011;20232;49.408;8.702;2023-11-19T17:34:02;3.40;;;1.60;;
6902;SDS011;20232;49.408;8.702;2023-11-19T17:36:28;4.87;;;2.00;;
6902;SDS011;20232;49.408;8.702;2023-11-19T17:38:53;5.57;;;2.20;;
6902;SDS011;20232;49.408;8.702;2023-11-19T17:41:18;8.37;;;2.27;;
6902;SDS011;20232;49.408;8.702;2023-11-19T17:43:44;5.13;;;1.93;;
6902;SDS011;20232;49.408;8.702;2023-11-19T17:46:09;6.43;;;2.50;;
6902;SDS011;20232;49.408;8.702;2023-11-19T17:48:35;9.17;;;2.50;;
6902;SDS011;20232;49.408;8.702;2023-11-19T17:51:00;2.23;;;1.90;;
6902;SDS011;20232;49.408;8.702;2023-11-19T17:53:26;3.67;;;1.80;;
6902;SDS011;20232;49.408;8.702;2023-11-19T17:55:52;6.37;;;2.67;;
6902;SDS011;20232;49.408;8.702;2023-11-19T17:58:19;5.13;;;2.23;;
6902;SDS011;20232;49.408;8.702;2023-11-19T18:00:46;4.30;;;2.10;;
6902;SDS011;20232;49.408;8.702;2023-11-19T18:03:12;4.27;;;2.27;;
6902;SDS011;20232;49.408;8.702;2023-11-19T18:05:37;5.83;;;2.40;;
6902;SDS011;20232;49.408;8.702;2023-11-19T18:08:06;5.60;;;1.77;;
6902;SDS011;20232;49.408;8.702;2023-11-19T18:10:34;3.33;;;2.13;;
6902;SDS011;20232;49.408;8.702;2023-11-19T18:13:00;3.53;;;2.10;;
6902;SDS011;20232;49.408;8.702;2023-11-19T18:15:26;9.10;;;2.00;;
6902;SDS011;20232;49.408;8.702;2023-11-19T18:17:51;3.43;;;2.20;;
6902;SDS011;20232;49.408;8.702;2023-11-19T18:20:16;6.20;;;1.97;;
6902;SDS011;20232;49.408;8.702;2023-11-19T18:22:43;4.90;;;2.10;;
6902;SDS011;20232;49.408;8.702;2023-11-19T18:25:11;5.90;;;2.27;;
6902;SDS011;20232;49.408;8.702;2023-11-19T18:27:40;4.93;;;1.80;;
6902;SDS011;20232;49.408;8.702;2023-11-19T18:30:08;5.10;;;2.20;;
6902;SDS011;20232;49.408;8.702;2023-11-19T18:32:38;6.33;;;2.63;;
6902;SDS011;20232;49.408;8.702;2023-11-19T18:35:04;7.20;;;2.67;;
6902;SDS011;20232;49.408;8.702;2023-11-19T18:37:30;6.40;;;1.67;;
6902;SDS011;20232;49.408;8.702;2023-11-19T18:39:56;4.50;;;2.40;;
6902;SDS011;20232;49.408;8.702;2023-11-19T18:42:21;3.67;;;1.83;;
6902;SDS011;20232;49.408;8.702;2023-11-19T18:44:46;4.97;;;2.17;;
6902;SDS011;20232;49.408;8.702;2023-11-19T18:47:12;6.23;;;2.00;;
6902;SDS011;20232;49.408;8.702;2023-11-19T18:49:37;5.20;;;2.30;;
6902;SDS011;20232;49.408;8.702;2023-11-19T18:52:02;4.20;;;1.90;;
6902;SDS011;20232;49.408;8.702;2023-11-19T18:54:28;5.13;;;1.80;;
6902;SDS011;20232;49.408;8.702;2023-11-19T18:56:53;6.63;;;2.03;;
6902;SDS011;20232;49.408;8.702;2023-11-19T18:59:25;7.90;;;2.23;;
6902;SDS011;20232;49.408;8.702;2023-11-19T19:01:50;3.53;;;1.90;;
6902;SDS011;20232;49.408;8.702;2023-11-19T19:04:16;5.87;;;2.10;;
6902;SDS011;20232;49.408;8.702;2023-11-19T19:06:41;4.70;;;2.13;;
6902;SDS011;20232;49.408;8.702;2023-11-19T19:09:07;4.43;;;1.73;;
6902;SDS011;20232;49.408;8.702;2023-11-19T19:11:32;5.80;;;2.00;;
6902;SDS011;20232;49.408;8.702;2023-11-19T19:13:58;3.03;;;1.70;;
6902;SDS011;20232;49.408;8.702;2023-11-19T19:16:24;6.83;;;2.43;;
6902;SDS011;20232;49.408;8.702;2023-11-19T19:18:49;6.67;;;2.50;;
6902;SDS011;20232;49.408;8.702;2023-11-19T19:21:15;9.93;;;2.43;;
6902;SDS011;20232;49.408;8.702;2023-11-19T19:23:41;8.17;;;2.07;;
6902;SDS011;20232;49.408;8.702;2023-11-19T19:26:08;6.17;;;1.80;;
6902;SDS011;20232;49.408;8.702;2023-11-19T19:28:33;5.73;;;2.20;;
6902;SDS011;20232;49.408;8.702;2023-11-19T19:31:03;6.60;;;2.20;;
6902;SDS011;20232;49.408;8.702;2023-11-19T19:33:29;8.13;;;2.37;;
6902;SDS011;20232;49.408;8.702;2023-11-19T19:35:54;6.80;;;2.70;;
6902;SDS011;20232;49.408;8.702;2023-11-19T19:38:19;4.60;;;2.03;;
6902;SDS011;20232;49.408;8.702;2023-11-19T19:40:45;5.80;;;2.17;;
6902;SDS011;20232;49.408;8.702;2023-11-19T19:43:10;7.97;;;2.43;;
6902;SDS011;20232;49.408;8.702;2023-11-19T19:45:36;5.53;;;2.20;;
6902;SDS011;20232;49.408;8.702;2023-11-19T19:48:01;6.00;;;2.57;;
6902;SDS011;20232;49.408;8.702;2023-11-19T19:50:27;9.60;;;2.10;;
6902;SDS011;20232;49.408;8.702;2023-11-19T19:52:53;5.73;;;2.47;;
6902;SDS011;20232;49.408;8.702;2023-11-19T19:55:20;7.33;;;2.57;;
6902;SDS011;20232;49.408;8.702;2023-11-19T19:57:46;8.70;;;2.93;;
6902;SDS011;20232;49.408;8.702;2023-11-19T20:00:15;10.43;;;2.73;;
6902;SDS011;20232;49.408;8.702;2023-11-19T20:02:41;9.13;;;2.30;;
6902;SDS011;20232;49.408;8.702;2023-11-19T20:05:07;8.90;;;2.63;;
6902;SDS011;20232;49.408;8.702;2023-11-19T20:07:42;6.70;;;2.40;;
6902;SDS011;20232;49.408;8.702;2023-11-19T20:10:08;9.47;;;2.30;;
6902;SDS011;20232;49.408;8.702;2023-11-19T20:12:37;10.23;;;2.63;;
6902;SDS011;20232;49.408;8.702;2023-11-19T20:15:06;9.77;;;2.23;;
6902;SDS011;20232;49.408;8.702;2023-11-19T20:17:33;7.73;;;3.23;;
6902;SDS011;20232;49.408;8.702;2023-11-19T20:19:59;7.90;;;2.33;;